createdAt,value
2019-02-12T00:03:22.090Z,9.43
2019-02-12T00:07:30.285Z,9.70
2019-02-12T00:11:38.405Z,9.27
2019-02-12T00:15:46.541Z,8.97
2019-02-12T00:19:54.672Z,7.83
2019-02-12T00:24:02.832Z,12.73
2019-02-12T00:28:10.998Z,8.80
2019-02-12T00:32:19.125Z,8.60
2019-02-12T00:36:27.258Z,8.47
2019-02-12T00:40:35.373Z,8.47
2019-02-12T00:44:43.489Z,9.20
2019-02-12T00:48:51.640Z,9.50
2019-02-12T00:52:59.808Z,9.20
2019-02-12T00:57:07.942Z,9.10
2019-02-12T01:01:16.073Z,9.80
2019-02-12T01:05:24.211Z,9.23
2019-02-12T01:09:32.346Z,9.17
2019-02-12T01:13:40.487Z,7.63
2019-02-12T01:17:48.660Z,7.90
2019-02-12T01:21:56.789Z,7.77
2019-02-12T01:26:04.945Z,8.80
2019-02-12T01:30:16.768Z,7.97
2019-02-12T01:34:23.349Z,8.40
2019-02-12T01:38:31.481Z,8.97
2019-02-12T01:42:39.626Z,8.57
2019-02-12T01:46:47.745Z,8.20
2019-02-12T01:50:55.921Z,8.67
2019-02-12T01:55:04.110Z,8.30
2019-02-12T01:59:12.237Z,8.30
2019-02-12T02:03:20.365Z,8.90
2019-02-12T02:07:28.493Z,9.80
2019-02-12T02:11:36.626Z,8.07
2019-02-12T02:15:44.765Z,8.00
2019-02-12T02:19:52.957Z,8.80
2019-02-12T02:24:01.082Z,7.50
2019-02-12T02:28:09.205Z,7.13
2019-02-12T02:32:17.337Z,7.60
2019-02-12T02:36:25.505Z,7.80
2019-02-12T02:40:33.646Z,6.67
2019-02-12T02:44:41.791Z,6.60
2019-02-12T02:48:49.935Z,7.00
2019-02-12T02:52:58.051Z,6.60
2019-02-12T02:57:06.171Z,7.43
2019-02-12T03:01:14.314Z,6.73
2019-02-12T03:05:22.454Z,6.27
2019-02-12T03:09:30.606Z,7.60
2019-02-12T03:13:38.725Z,6.03
2019-02-12T03:17:46.838Z,6.67
2019-02-12T03:22:03.448Z,6.00
2019-02-12T03:26:03.101Z,7.97
2019-02-12T03:30:11.257Z,8.10
2019-02-12T03:34:19.375Z,7.50
2019-02-12T03:38:27.496Z,6.50
2019-02-12T03:42:35.619Z,6.00
2019-02-12T03:46:43.747Z,5.50
2019-02-12T03:50:51.862Z,5.80
2019-02-12T03:54:59.972Z,4.60
2019-02-12T03:59:08.099Z,4.10
2019-02-12T04:03:16.228Z,5.23
2019-02-12T04:07:24.322Z,3.47
2019-02-12T04:11:32.467Z,4.27
2019-02-12T04:15:40.614Z,4.63
2019-02-12T04:19:48.755Z,4.00
2019-02-12T04:23:56.862Z,4.10
2019-02-12T04:28:04.980Z,4.20
2019-02-12T04:32:13.102Z,4.57
2019-02-12T04:36:21.254Z,3.87
2019-02-12T04:40:29.385Z,4.63
2019-02-12T04:44:37.509Z,4.40
2019-02-12T04:48:45.631Z,5.80
2019-02-12T04:52:53.744Z,4.10
2019-02-12T04:57:01.861Z,3.37
2019-02-12T05:01:10.038Z,4.27
2019-02-12T05:05:18.219Z,4.00
2019-02-12T05:09:26.600Z,4.67
2019-02-12T05:13:34.713Z,4.30
2019-02-12T05:17:42.822Z,4.33
2019-02-12T05:21:50.937Z,5.10
2019-02-12T05:25:59.109Z,4.83
2019-02-12T05:30:08.414Z,6.03
2019-02-12T05:34:16.526Z,5.67
2019-02-12T05:38:24.645Z,4.87
2019-02-12T05:42:32.783Z,5.23
2019-02-12T05:46:40.967Z,5.17
2019-02-12T05:50:49.093Z,5.30
2019-02-12T05:54:57.202Z,5.20
2019-02-12T05:59:05.315Z,5.13
2019-02-12T06:03:13.442Z,4.67
2019-02-12T06:07:21.591Z,5.50
2019-02-12T06:11:29.729Z,4.47
2019-02-12T06:15:37.846Z,4.27
2019-02-12T06:19:45.967Z,4.83
2019-02-12T06:23:54.086Z,5.97
2019-02-12T06:28:02.250Z,5.20
2019-02-12T06:32:10.380Z,6.73
2019-02-12T06:36:18.513Z,6.27
2019-02-12T06:40:26.627Z,5.10
2019-02-12T06:44:34.745Z,5.17
2019-02-12T06:48:42.845Z,4.80
2019-02-12T06:52:50.960Z,6.20
2019-02-12T06:56:59.110Z,6.93
2019-02-12T07:01:07.269Z,14.30
2019-02-12T07:05:15.407Z,11.50
2019-02-12T07:09:30.662Z,8.77
2019-02-12T07:13:50.239Z,7.97
2019-02-12T07:18:12.701Z,7.40
2019-02-12T07:24:39.185Z,22.00
2019-02-12T07:28:57.374Z,13.13
2019-02-12T07:33:30.272Z,22.63
2019-02-12T07:38:55.838Z,99.50
2019-02-12T07:45:20.766Z,75.27
2019-02-12T07:49:42.181Z,12.60
2019-02-12T07:54:08.701Z,18.40
2019-02-12T07:59:26.074Z,22.70
2019-02-12T08:04:03.084Z,33.37
2019-02-12T08:09:30.165Z,21.50
2019-02-12T08:15:57.478Z,15.60
2019-02-12T08:20:53.592Z,11.73
2019-02-12T08:25:13.948Z,15.33
2019-02-12T08:29:33.739Z,10.67
2019-02-12T08:34:26.023Z,11.67
2019-02-12T08:38:43.479Z,7.20
2019-02-12T08:42:58.913Z,6.17
2019-02-12T08:47:17.075Z,4.70
2019-02-12T08:51:35.231Z,5.03
2019-02-12T08:56:56.235Z,5.10
2019-02-12T09:03:34.742Z,8.40
2019-02-12T09:07:53.534Z,5.17
2019-02-12T09:13:09.358Z,5.10
2019-02-12T09:17:29.322Z,5.40
2019-02-12T09:21:48.198Z,5.13
2019-02-12T09:26:08.741Z,4.80
2019-02-12T09:30:35.150Z,5.23
2019-02-12T09:34:58.973Z,4.30
2019-02-12T09:39:49.694Z,4.93
2019-02-12T09:46:20.673Z,4.80
2019-02-12T09:52:49.341Z,4.47
2019-02-12T09:57:30.214Z,4.67
2019-02-12T10:01:51.410Z,4.73
2019-02-12T10:06:44.987Z,4.80
2019-02-12T10:11:12.863Z,5.07
2019-02-12T10:15:33.969Z,4.60
2019-02-12T10:19:49.905Z,4.60
2019-02-12T10:24:19.800Z,5.53
2019-02-12T10:29:31.872Z,6.20
2019-02-12T10:33:39.998Z,5.20
2019-02-12T10:37:48.198Z,5.23
2019-02-12T10:41:56.319Z,4.97
2019-02-12T10:46:04.515Z,4.60
2019-02-12T10:50:12.632Z,5.00
2019-02-12T10:54:27.752Z,4.10
2019-02-12T10:58:28.880Z,4.70
2019-02-12T11:02:37.034Z,4.20
2019-02-12T11:06:45.202Z,4.30
2019-02-12T11:10:53.273Z,5.03
2019-02-12T11:15:01.412Z,4.73
2019-02-12T11:19:09.534Z,4.07
2019-02-12T11:23:17.662Z,4.23
2019-02-12T11:27:25.782Z,4.90
2019-02-12T11:31:33.890Z,4.10
2019-02-12T11:35:41.998Z,5.73
2019-02-12T11:39:50.109Z,5.13
2019-02-12T11:43:58.260Z,4.67
2019-02-12T11:48:06.401Z,4.30
2019-02-12T11:52:14.510Z,5.13
2019-02-12T11:56:22.621Z,9.53
2019-02-12T12:00:34.940Z,6.40
2019-02-12T12:04:43.041Z,4.90
2019-02-12T12:08:51.141Z,5.33
2019-02-12T12:12:59.255Z,4.93
2019-02-12T12:17:07.354Z,7.20
2019-02-12T12:21:15.489Z,5.47
2019-02-12T12:25:23.605Z,6.20
2019-02-12T12:29:31.705Z,4.87
2019-02-12T12:33:39.841Z,12.20
2019-02-12T12:37:47.958Z,5.67
2019-02-12T12:41:56.117Z,5.77
2019-02-12T12:46:04.269Z,5.53
2019-02-12T12:50:12.409Z,8.33
2019-02-12T12:54:20.517Z,8.10
2019-02-12T12:58:28.626Z,5.07
2019-02-12T13:02:36.771Z,5.93
2019-02-12T13:06:44.886Z,5.47
2019-02-12T13:10:53.047Z,9.20
2019-02-12T13:15:01.156Z,6.23
2019-02-12T13:19:09.268Z,6.93
2019-02-12T13:23:17.370Z,5.30
2019-02-12T13:27:25.491Z,5.73
2019-02-12T13:31:33.630Z,5.57
2019-02-12T13:35:41.794Z,4.40
2019-02-12T13:39:49.885Z,4.00
2019-02-12T13:43:58.004Z,6.23
2019-02-12T13:48:06.110Z,12.83
2019-02-12T13:52:14.274Z,5.93
2019-02-12T13:56:22.485Z,4.43
2019-02-12T14:00:30.590Z,5.47
2019-02-12T14:04:38.698Z,4.00
2019-02-12T14:08:46.801Z,3.57
2019-02-12T14:12:54.909Z,3.93
2019-02-12T14:17:03.057Z,3.63
2019-02-12T14:21:11.202Z,3.70
2019-02-12T14:25:25.418Z,3.47
2019-02-12T14:29:27.465Z,3.83
2019-02-12T14:33:35.573Z,3.60
2019-02-12T14:37:43.698Z,3.10
2019-02-12T14:41:51.854Z,3.50
2019-02-12T14:45:59.973Z,3.97
2019-02-12T14:50:09.175Z,3.63
2019-02-12T14:54:17.274Z,3.73
2019-02-12T14:58:25.370Z,3.57
2019-02-12T15:02:33.539Z,3.93
2019-02-12T15:06:41.677Z,3.30
2019-02-12T15:10:49.814Z,3.50
2019-02-12T15:14:57.937Z,3.70
2019-02-12T15:19:06.063Z,3.27
2019-02-12T15:23:14.157Z,3.33
2019-02-12T15:27:22.477Z,3.13
2019-02-12T15:31:30.612Z,3.50
2019-02-12T15:35:38.725Z,3.53
2019-02-12T15:39:46.835Z,4.47
2019-02-12T15:43:54.928Z,4.13
2019-02-12T15:48:03.030Z,3.70
2019-02-12T15:52:11.169Z,3.27
2019-02-12T15:56:19.302Z,4.07
2019-02-12T16:00:27.415Z,3.00
2019-02-12T16:04:35.525Z,3.40
2019-02-12T16:08:43.629Z,3.77
2019-02-12T16:12:51.807Z,5.03
2019-02-12T16:16:59.867Z,3.77
2019-02-12T16:21:08.030Z,3.17
2019-02-12T16:25:16.138Z,3.50
2019-02-12T16:29:24.246Z,4.00
2019-02-12T16:33:32.370Z,3.53
2019-02-12T16:37:40.522Z,3.60
2019-02-12T16:41:48.682Z,3.60
2019-02-12T16:46:01.316Z,4.17
2019-02-12T16:50:09.515Z,4.30
2019-02-12T16:54:17.669Z,4.87
2019-02-12T16:58:25.777Z,4.63
2019-02-12T17:02:33.895Z,4.33
2019-02-12T17:06:42.001Z,3.70
2019-02-12T17:10:50.131Z,4.13
2019-02-12T17:14:58.242Z,11.13
2019-02-12T17:19:06.402Z,10.00
2019-02-12T17:23:14.505Z,9.43
2019-02-12T17:27:22.694Z,7.50
2019-02-12T17:31:30.802Z,7.70
2019-02-12T17:35:38.976Z,19.63
2019-02-12T17:39:48.459Z,38.70
2019-02-12T17:43:55.274Z,30.40
2019-02-12T17:48:03.394Z,23.60
2019-02-12T17:52:11.730Z,15.50
2019-02-12T17:56:24.875Z,16.60
2019-02-12T18:00:30.107Z,13.00
2019-02-12T18:04:38.213Z,18.00
2019-02-12T18:08:46.334Z,42.63
2019-02-12T18:12:54.503Z,15.17
2019-02-12T18:17:02.674Z,8.53
2019-02-12T18:21:10.802Z,8.00
2019-02-12T18:25:18.905Z,20.30
2019-02-12T18:29:27.021Z,27.70
2019-02-12T18:33:35.145Z,17.03
2019-02-12T18:37:43.316Z,10.10
2019-02-12T18:41:51.455Z,22.53
2019-02-12T18:45:59.590Z,12.27
2019-02-12T18:50:08.477Z,12.13
2019-02-12T18:54:16.601Z,9.90
2019-02-12T18:58:24.754Z,9.47
2019-02-12T19:02:32.876Z,7.97
2019-02-12T19:06:41.077Z,9.13
2019-02-12T19:10:49.189Z,8.43
2019-02-12T19:14:57.329Z,9.00
2019-02-12T19:19:05.450Z,15.17
2019-02-12T19:23:13.577Z,11.60
2019-02-12T19:27:21.743Z,8.60
2019-02-12T19:31:29.882Z,10.23
2019-02-12T19:35:38.001Z,9.97
2019-02-12T19:39:46.446Z,10.90
2019-02-12T19:43:54.602Z,9.33
2019-02-12T19:48:02.742Z,12.83
2019-02-12T19:52:10.927Z,32.17
2019-02-12T19:56:19.066Z,20.50
2019-02-12T20:00:27.303Z,14.73
2019-02-12T20:04:35.436Z,8.50
2019-02-12T20:08:43.834Z,17.87
2019-02-12T20:12:51.961Z,18.37
2019-02-12T20:17:00.091Z,11.47
2019-02-12T20:21:08.248Z,10.70
2019-02-12T20:25:16.367Z,12.43
2019-02-12T20:29:24.484Z,15.03
2019-02-12T20:33:32.741Z,15.63
2019-02-12T20:37:40.898Z,12.67
2019-02-12T20:41:49.058Z,13.10
2019-02-12T20:45:57.181Z,12.77
2019-02-12T20:50:06.417Z,13.57
2019-02-12T20:54:14.582Z,18.37
2019-02-12T20:58:22.758Z,10.43
2019-02-12T21:02:30.876Z,9.37
2019-02-12T21:06:39.006Z,9.07
2019-02-12T21:10:47.134Z,10.70
2019-02-12T21:14:55.334Z,11.43
2019-02-12T21:19:03.795Z,8.53
2019-02-12T21:23:11.919Z,8.83
2019-02-12T21:27:23.330Z,8.90
2019-02-12T21:31:28.175Z,11.00
2019-02-12T21:35:36.309Z,10.50
2019-02-12T21:39:44.421Z,10.80
2019-02-12T21:43:52.604Z,11.97
2019-02-12T21:48:00.743Z,10.50
2019-02-12T21:52:08.868Z,10.83
2019-02-12T21:56:16.990Z,10.67
2019-02-12T22:00:25.143Z,11.07
2019-02-12T22:04:33.326Z,11.13
2019-02-12T22:08:41.525Z,9.97
2019-02-12T22:12:49.615Z,11.43
2019-02-12T22:16:57.731Z,12.77
2019-02-12T22:21:05.866Z,13.13
2019-02-12T22:25:14.028Z,13.23
2019-02-12T22:29:22.213Z,13.40
2019-02-12T22:33:30.349Z,12.77
2019-02-12T22:37:38.467Z,14.07
2019-02-12T22:41:46.596Z,15.43
2019-02-12T22:45:54.741Z,19.87
2019-02-12T22:50:02.965Z,14.57
2019-02-12T22:54:11.157Z,13.83
2019-02-12T22:58:19.274Z,13.70
2019-02-12T23:02:27.398Z,12.77
2019-02-12T23:06:35.518Z,13.27
2019-02-12T23:10:43.677Z,16.23
2019-02-12T23:14:51.872Z,14.90
2019-02-12T23:19:00.010Z,14.43
2019-02-12T23:23:08.129Z,12.23
2019-02-12T23:27:16.266Z,17.40
2019-02-12T23:31:24.386Z,11.90
2019-02-12T23:35:32.701Z,15.80
2019-02-12T23:39:40.781Z,13.00
2019-02-12T23:43:48.910Z,12.37
2019-02-12T23:47:57.032Z,11.47
2019-02-12T23:52:05.149Z,13.10
2019-02-12T23:56:13.301Z,12.30
